Accueil
METAR-TAF:

METAR-TAF

Aéroports :

Aérodrome de Saurimo

Saurimo, Angola

latitude: 9-41-20S, longitude: 20-25-55E, altitude: 1092 m

Observation

Le bulletin a été fait il y a 2 heures et 43 minutes, à 15:00 UTC
Vent 5 kt de nord
Température 29°C
Humidité 58%
Pression 1016 hPa
Visibilité 10 km ou plus
Nuages épars à une hauteur de 5000 ft

METAR: FNSA 241500Z 36005KT 9999 SCT050 29/20 Q1016

Heure: 18:43 (17:43 UTC)

Prévision

Le bulletin a été fait il y a 6 heures et 58 minutes, à 10:45 UTC
Prévision valable du 24 à 12 UTC au 24 à 24 UTC
Vent 8 kt de ouest
Visibilité 10 km ou plus
Nuages épars à une hauteur de 2500 ft
Evoluant progressivement
du 24 à 20 UTC au 24 à 22 UTC
Vent 3 kt de direction variable
Visibilité: 8000 m
Nuages épars à une hauteur de 1500 ft
Nuages fragmentés à une hauteur de 2200 ft
bruine

TAF: FNSA 241045Z 2412/2424 28008KT 9999 SCT025 BECMG 2420/2422 VRB03KT 8000 DZ SCT015 BKN022

Observations et prévisions météorologiques de plus de 4000 aéroports (messages METAR et TAF).

Les stations disponibles sont représentées par des disques jaunes et rouges sur la carte.

Passer la souris dessus pour voir le nom de la station.

Cliquer dessus pour voir les observations et prévisions météorologiques.

Pour changer de carte: cliquez sur les boutons verts avec une croix noire pour zoomer, sur le bouton vert avec un tiret pour effectuer un zoom arrière, ou sur les flèches vertes pour les cartes adjacentes.


METAR-TAF: